Latest Weather Observations for Moranbah Airport

IDQ60801

Issued at 6:32 am EST Monday 22 December 2014 (issued every 30 minutes, with the page automatically refreshed every 10 minutes)

About weather observations | Map of weather stations | Latest weather observations for QLD | Other Formats
Station Details ID: 034035 Name: MORANBAH AIRPORT Lat: -22.06 Lon: 148.08 Height: 232.2 m
Data from the previous 72 hours. | See also: Recent months at Moranbah Airport
Date/Time
EST
Temp
°C
App
Temp
°C
Dew
Point
Rel
Hum
%
Delta-T
°C
Wind Press
QNH
hPa
Press
MSL
hPa
Rain
since 9 am
mm
Dir
 
Spd
km/h
Gust
km/h
Spd
kts
Gust
kts
22/06:00am 20.7 21.5 19.0 90 1.1 SE 13 17 7 9 1014.7 1013.2 0.0
22/05:30am 19.9 20.1 18.6 92 0.8 SE 15 17 8 9 1014.3 1012.8 0.0
22/05:00am 20.0 20.2 18.5 91 0.9 SE 15 17 8 9 1013.9 1012.4 0.0
22/04:30am 19.9 20.0 18.4 91 0.9 SE 15 17 8 9 1013.7 1012.2 0.0
22/04:00am 20.0 20.6 18.5 91 0.9 SSE 13 15 7 8 1013.5 1011.9 0.0
22/03:30am 20.0 20.6 18.5 91 0.9 SE 13 15 7 8 1013.4 1011.8 0.0
22/03:00am 20.2 21.1 18.5 90 1.1 SE 11 13 6 7 1013.5 1011.9 0.0
22/02:30am 20.7 21.8 18.1 85 1.6 ESE 9 11 5 6 1013.7 1012.2 0.0
22/02:00am 21.8 22.5 18.8 83 1.9 E 13 15 7 8 1013.8 1012.3 0.0
22/01:30am 22.1 23.1 18.7 81 2.2 E 11 13 6 7 1014.2 1012.7 0.0
22/01:00am 22.5 23.1 18.7 79 2.4 E 13 17 7 9 1014.3 1012.8 0.0
22/12:30am 22.9 23.6 18.9 78 2.6 E 13 19 7 10 1014.4 1012.9 0.0
22/12:00am 23.5 23.9 19.0 76 2.9 E 15 20 8 11 1014.6 1013.0 0.0
 
Date/Time
EST
Temp
°C
App
Temp
°C
Dew
Point
Rel
Hum
%
Delta-T
°C
Wind Press
QNH
hPa
Press
MSL
hPa
Rain
since 9 am
mm
Dir
 
Spd
km/h
Gust
km/h
Spd
kts
Gust
kts
21/11:30pm 23.5 24.0 18.4 73 3.2 ENE 13 17 7 9 1014.8 1013.3 0.0
21/11:00pm 24.0 24.0 18.2 70 3.7 ENE 15 20 8 11 1014.8 1013.3 0.0
21/10:30pm 24.6 24.2 18.1 67 4.1 ENE 17 20 9 11 1014.8 1013.3 0.0
21/10:00pm 25.1 24.0 17.3 62 4.9 ENE 19 24 10 13 1014.9 1013.4 0.0
21/09:30pm 25.7 24.3 16.5 56 5.7 ENE 19 26 10 14 1014.5 1013.0 0.0
21/09:00pm 25.9 24.5 15.6 53 6.3 ENE 17 24 9 13 1014.2 1012.7 0.0
21/08:30pm 27.0 25.0 15.4 49 7.1 ENE 20 26 11 14 1014.0 1012.5 0.0
21/07:30pm 28.3 26.1 14.5 43 8.4 ENE 19 26 10 14 1013.5 1011.9 0.0
21/07:00pm 28.8 26.2 13.1 38 9.4 ENE 19 24 10 13 1013.1 1011.5 0.0
21/06:30pm 30.0 27.1 12.9 35 10.2 E 20 32 11 17 1012.8 1011.2 0.0
21/06:00pm 31.1 28.4 13.4 34 10.7 E 20 28 11 15 1012.5 1010.9 0.0
21/05:30pm 32.0 28.6 13.7 33 11.2 ENE 24 33 13 18 1012.1 1010.6 0.0
21/05:00pm 33.2 30.6 14.8 33 11.5 E 22 32 12 17 1011.8 1010.3 0.0
21/04:30pm 32.9 29.4 13.5 30 11.8 E 24 32 13 17 1011.7 1010.2 0.0
21/04:00pm 33.3 30.4 13.9 31 11.9 E 22 32 12 17 1011.6 1010.1 0.0
21/03:30pm 33.5 30.9 15.0 32 11.6 ENE 22 33 12 18 1011.8 1010.3 0.0
21/03:00pm 32.8 29.8 14.9 34 11.1 E 24 33 13 18 1012.3 1010.7 0.0
21/02:30pm 34.3 31.8 15.2 31 12.0 ENE 22 32 12 17 1012.6 1011.0 0.0
21/02:00pm 33.0 31.5 16.4 37 10.6 ESE 19 30 10 16 1013.0 1011.4 0.0
21/01:30pm 32.9 30.5 16.3 37 10.5 ESE 24 32 13 17 1013.5 1011.9 0.0
21/01:00pm 32.7 30.7 17.3 39 9.9 E 24 41 13 22 1014.0 1012.5 0.0
21/12:30pm 32.3 31.1 17.4 41 9.6 ESE 20 30 11 16 1014.3 1012.8 0.0
21/12:00pm 31.8 30.4 16.9 40 9.5 E 20 26 11 14 1014.6 1013.1 0.0
21/11:30am 31.8 31.4 18.0 43 9.0 E 17 26 9 14 1015.1 1013.6 0.0
21/11:00am 30.9 29.1 17.9 45 8.4 ENE 24 35 13 19 1015.3 1013.8 0.0
21/10:30am 30.6 30.1 17.7 46 8.3 E 17 28 9 15 1015.5 1014.0 0.0
21/10:00am 30.3 29.0 18.1 48 7.9 ENE 22 30 12 16 1015.5 1014.0 0.0
21/09:30am 29.3 28.4 18.1 51 7.2 ENE 20 28 11 15 1015.6 1014.1 0.0
21/09:00am 28.6 26.8 18.7 55 6.4 E 26 35 14 19 1015.4 1013.9 0.0
21/08:30am 27.7 25.9 18.7 58 5.8 ENE 26 37 14 20 1015.3 1013.8 0.0
21/08:00am 26.9 26.7 19.8 65 4.7 ENE 20 28 11 15 1015.3 1013.8 0.0
21/07:30am 25.1 26.4 20.1 74 3.3 E 13 19 7 10 1015.1 1013.6 0.0
21/07:00am 24.3 25.5 20.0 77 2.8 ESE 13 17 7 9 1014.8 1013.3 0.0
21/06:30am 22.7 24.1 19.5 82 2.1 ESE 11 13 6 7 1014.5 1013.0 0.0
21/06:00am 21.0 22.6 19.1 89 1.2 SE 9 11 5 6 1014.2 1012.7 0.0
21/05:30am 19.9 20.8 18.4 91 0.9 SSE 11 13 6 7 1013.8 1012.3 0.0
21/05:00am 20.0 20.6 18.5 91 0.9 SSE 13 15 7 8 1013.4 1011.8 0.0
21/04:30am 19.9 20.3 18.2 90 1.1 SE 13 15 7 8 1013.1 1011.5 0.0
21/04:00am 19.7 20.0 17.8 89 1.2 SE 13 15 7 8 1012.9 1011.3 0.0
21/03:30am 19.7 19.8 17.5 87 1.4 SE 13 15 7 8 1012.8 1011.2 0.0
21/03:00am 20.1 20.2 17.5 85 1.6 SSE 13 15 7 8 1012.9 1011.3 0.0
21/02:30am 20.5 20.5 17.3 82 2.0 S 13 13 7 7 1013.0 1011.4 0.0
21/02:00am 21.6 22.7 18.0 80 2.3 ENE 9 11 5 6 1013.0 1011.4 0.0
21/01:30am 21.9 22.3 18.1 79 2.4 E 13 15 7 8 1013.0 1011.4 0.0
21/01:00am 22.4 22.7 18.0 76 2.8 E 13 17 7 9 1013.2 1011.6 0.0
21/12:30am 22.4 22.7 17.1 72 3.3 ESE 11 13 6 7 1013.3 1011.7 0.0
21/12:00am 23.1 23.4 16.9 68 3.8 E 11 15 6 8 1013.6 1012.1 0.0
 
Date/Time
EST
Temp
°C
App
Temp
°C
Dew
Point
Rel
Hum
%
Delta-T
°C
Wind Press
QNH
hPa
Press
MSL
hPa
Rain
since 9 am
mm
Dir
 
Spd
km/h
Gust
km/h
Spd
kts
Gust
kts
20/11:30pm 23.3 23.1 15.6 62 4.7 E 11 15 6 8 1013.8 1012.3 0.0
20/11:00pm 23.9 23.0 13.7 53 6.0 E 11 15 6 8 1013.9 1012.4 0.0
20/10:30pm 24.6 23.0 12.9 48 6.8 E 13 17 7 9 1013.8 1012.3 0.0
20/10:00pm 24.5 23.3 12.8 48 6.8 E 11 15 6 8 1013.9 1012.4 0.0
20/09:30pm 25.1 23.1 11.6 42 7.7 E 13 17 7 9 1013.7 1012.2 0.0
20/09:00pm 26.4 23.4 10.5 37 9.0 ENE 17 20 9 11 1013.4 1011.8 0.0
20/08:30pm 27.5 24.0 8.9 31 10.3 ENE 17 26 9 14 1013.0 1011.4 0.0
20/08:00pm 27.9 24.4 8.7 30 10.6 ENE 17 22 9 12 1012.5 1010.9 0.0
20/07:30pm 28.4 24.4 8.1 28 11.1 ENE 19 24 10 13 1012.1 1010.6 0.0
20/07:00pm 29.8 25.5 7.7 25 12.1 ENE 20 28 11 15 1011.6 1010.1 0.0
20/06:30pm 30.9 26.1 7.4 23 12.9 E 22 35 12 19 1011.1 1009.6 0.0
20/06:00pm 32.5 26.6 7.4 21 13.9 E 28 35 15 19 1010.7 1009.2 0.0
20/05:30pm 33.6 29.2 9.0 22 14.1 E 22 32 12 17 1010.2 1008.7 0.0
20/05:00pm 34.1 29.6 8.7 21 14.5 ESE 22 32 12 17 1009.8 1008.3 0.0
20/04:30pm 34.0 30.3 9.3 22 14.2 ESE 19 28 10 15 1009.7 1008.2 0.0
20/04:00pm 34.5 30.9 9.7 22 14.4 ESE 19 30 10 16 1009.6 1008.0 0.0
20/03:30pm 34.9 31.3 10.7 23 14.3 E 20 28 11 15 1009.8 1008.3 0.0
20/03:00pm 34.7 31.3 10.5 23 14.2 E 19 30 10 16 1010.0 1008.5 0.0
20/02:30pm 34.7 32.0 11.8 25 13.7 E 17 30 9 16 1010.5 1009.0 0.0
20/02:00pm 34.5 31.6 13.9 29 12.7 ESE 22 32 12 17 1010.9 1009.4 0.0
20/01:30pm 34.1 30.7 12.4 26 13.1 E 22 33 12 18 1011.3 1009.8 0.0
20/01:00pm 34.4 33.5 14.8 30 12.3 ESE 13 20 7 11 1011.7 1010.2 0.0
20/12:30pm 33.3 30.6 12.9 29 12.4 E 19 28 10 15 1012.0 1010.5 0.0
20/12:00pm 33.0 29.6 13.6 31 11.9 ENE 24 35 13 19 1012.5 1010.9 0.0
20/11:30am 32.9 29.2 14.0 32 11.6 E 26 39 14 21 1013.0 1011.4 0.0
20/11:00am 32.7 30.3 13.8 31 11.6 E 19 32 10 17 1013.4 1011.8 0.0
20/10:30am 31.6 30.3 14.7 36 10.4 E 15 26 8 14 1013.8 1012.3 0.0
20/10:00am 31.6 29.9 16.3 39 9.7 ENE 20 32 11 17 1014.0 1012.5 0.0
20/09:30am 30.6 29.3 15.8 40 9.3 ENE 17 26 9 14 1014.1 1012.6 0.0
20/09:00am 29.8 29.8 18.9 52 7.1 ENE 17 26 9 14 1014.1 1012.6 0.0
20/08:30am 28.4 29.6 19.9 60 5.6 E 13 24 7 13 1014.0 1012.5 0.0
20/08:00am 27.5 29.7 21.1 68 4.3 E 11 19 6 10 1013.8 1012.3 0.0
20/07:30am 26.0 28.7 21.4 76 3.1 NE 9 11 5 6 1013.8 1012.3 0.0
20/07:00am 25.2 28.4 21.7 81 2.3 ESE 7 9 4 5 1013.7 1012.2 0.0
20/06:30am 23.4 26.3 20.7 85 1.8 ESE 6 7 3 4 1013.4 1011.8 0.0
20/06:00am 21.1 24.3 19.7 92 0.9 ESE 2 6 1 3 1013.0 1011.4 0.0
20/05:30am 20.4 21.7 19.4 94 0.6 ESE 11 13 6 7 1012.8 1011.2 0.0
20/05:00am 20.4 22.0 19.2 93 0.8 SE 9 11 5 6 1012.3 1010.7 0.0
20/04:30am 20.5 21.4 19.3 93 0.8 SSE 13 13 7 7 1011.9 1010.4 0.0
20/04:00am 20.8 22.2 19.5 92 0.8 SE 11 13 6 7 1011.8 1010.3 0.0
20/03:30am 20.4 21.6 19.1 92 0.8 SE 11 13 6 7 1011.7 1010.2 0.0
20/03:00am 20.6 23.2 19.3 92 0.8 SE 4 9 2 5 1011.9 1010.4 0.0
20/02:30am 20.4 22.4 18.7 90 1.1 SE 6 6 3 3 1012.0 1010.5 0.0
20/02:00am 21.1 23.2 19.0 88 1.3 ESE 6 7 3 4 1012.3 1010.7 0.0
20/01:30am 21.3 23.3 18.7 85 1.6 E 6 9 3 5 1012.5 1010.9 0.0
20/01:00am 21.6 24.4 18.8 84 1.8 SE 2 7 1 4 1012.6 1011.0 0.0
20/12:30am 22.2 25.6 19.4 84 1.8 CALM 0 0 0 0 1013.0 1011.4 0.0
20/12:00am 22.6 24.8 19.2 81 2.2 SE 6 7 3 4 1013.4 1011.8 0.0
 
Date/Time
EST
Temp
°C
App
Temp
°C
Dew
Point
Rel
Hum
%
Delta-T
°C
Wind Press
QNH
hPa
Press
MSL
hPa
Rain
since 9 am
mm
Dir
 
Spd
km/h
Gust
km/h
Spd
kts
Gust
kts
19/11:30pm 23.2 24.9 19.4 79 2.4 SE 9 9 5 5 1013.6 1012.1 0.0
19/11:00pm 24.0 25.4 19.5 76 2.9 SE 11 15 6 8 1013.8 1012.3 0.0
19/10:30pm 24.9 25.9 19.5 72 3.5 SE 13 17 7 9 1013.8 1012.3 0.0
19/10:00pm 26.0 26.8 19.9 69 4.0 SE 15 20 8 11 1013.7 1012.2 0.0
19/09:30pm 26.3 26.9 20.2 69 4.0 SE 17 20 9 11 1013.7 1012.2 0.0
19/09:00pm 26.1 27.1 20.2 70 3.9 SE 15 19 8 10 1013.5 1011.9 0.0
19/08:30pm 26.4 27.2 19.8 67 4.3 SE 15 19 8 10 1013.3 1011.7 0.0
19/08:00pm 27.1 27.1 19.7 64 4.8 ESE 19 24 10 13 1013.0 1011.4 0.0
19/07:30pm 27.7 28.2 19.2 60 5.5 ESE 15 20 8 11 1012.6 1011.0 0.0
19/07:00pm 27.9 28.6 18.9 58 5.8 SE 13 17 7 9 1012.1 1010.6 0.0
19/06:30pm 28.9 29.4 19.2 55 6.3 ESE 15 19 8 10 1011.7 1010.2 0.0
19/06:00pm 29.2 30.1 19.2 54 6.5 ESE 13 20 7 11 1011.5 1010.0 0.0
19/05:30pm 29.7 30.0 19.7 55 6.6 ESE 17 20 9 11 1011.4 1009.9 0.0
19/05:00pm 29.8 32.0 19.5 54 6.8 S 7 13 4 7 1011.3 1009.8 0.0
19/04:30pm 30.1 32.0 19.8 54 6.8 SE 9 13 5 7 1011.1 1009.6 0.0
19/04:00pm 29.4 30.4 19.4 55 6.6 SSE 13 19 7 10 1011.2 1009.7 0.0
19/03:30pm 30.1 31.6 19.8 54 6.8 SSE 11 19 6 10 1011.2 1009.7 0.0
19/03:00pm 29.9 31.6 20.2 56 6.5 SSE 11 20 6 11 1011.5 1010.0 0.0
19/02:30pm 29.7 31.0 19.4 54 6.8 SE 11 19 6 10 1011.7 1010.2 0.0
19/02:00pm 30.3 32.9 20.5 55 6.6 S 7 17 4 9 1012.3 1010.7 0.0
19/01:30pm 29.6 30.6 18.7 52 7.1 S 11 20 6 11 1012.6 1011.0 0.0
19/01:00pm 29.5 31.3 19.5 55 6.6 SSE 9 17 5 9 1012.9 1011.3 0.0
19/12:30pm 28.6 29.6 19.5 58 6.0 S 13 17 7 9 1013.2 1011.6 0.0
19/12:00pm 28.5 30.9 20.8 63 5.1 SSE 9 13 5 7 1013.7 1012.2 0.0
19/11:30am 28.3 29.8 20.6 63 5.1 SSE 13 19 7 10 1013.8 1012.3 0.0
19/11:00am 27.5 29.2 20.1 64 4.9 ESE 11 17 6 9 1014.0 1012.5 0.0
19/10:30am 26.2 28.0 19.6 67 4.3 ESE 9 17 5 9 1014.1 1012.6 0.0
19/10:00am 25.5 26.9 19.6 70 3.8 SE 11 15 6 8 1014.2 1012.7 0.0
19/09:30am 24.8 26.1 19.4 72 3.5 ESE 11 15 6 8 1014.0 1012.5 0.0
19/09:00am 24.4 25.1 18.8 71 3.6 SE 13 17 7 9 1014.0 1012.5 0.0
19/08:30am 24.3 25.1 19.1 73 3.3 SE 13 19 7 10 1013.9 1012.4 0.0
19/08:00am 24.1 25.0 19.2 74 3.2 SE 13 17 7 9 1013.8 1012.3 0.0
19/07:30am 23.7 25.0 19.2 76 2.9 SE 11 15 6 8 1013.4 1011.8 0.0
19/07:00am 23.2 23.9 18.9 77 2.8 SE 13 17 7 9 1013.1 1011.5 0.0

Other Formats:

Comma delimited format used in spreadsheet applications
http://www.bom.gov.au/fwo/IDQ60801/IDQ60801.94397.axf

JavaScript Object Notation format (JSON) in row-major order
http://www.bom.gov.au/fwo/IDQ60801/IDQ60801.94397.json